sensor_id;sensor_type;location;lat;lon;timestamp;P1;durP1;ratioP1;P2;durP2;ratioP2
77701;SDS011;66868;42.708;23.404;2024-01-07T00:01:23;29.50;;;18.33;;
77701;SDS011;66868;42.708;23.404;2024-01-07T00:03:48;35.10;;;18.42;;
77701;SDS011;66868;42.708;23.404;2024-01-07T00:06:14;31.05;;;19.90;;
77701;SDS011;66868;42.708;23.404;2024-01-07T00:08:39;33.22;;;19.70;;
77701;SDS011;66868;42.708;23.404;2024-01-07T00:11:05;39.22;;;20.25;;
77701;SDS011;66868;42.708;23.404;2024-01-07T00:13:30;39.50;;;21.25;;
77701;SDS011;66868;42.708;23.404;2024-01-07T00:15:56;45.13;;;23.20;;
77701;SDS011;66868;42.708;23.404;2024-01-07T00:18:21;36.17;;;21.00;;
77701;SDS011;66868;42.708;23.404;2024-01-07T00:20:47;36.60;;;19.35;;
77701;SDS011;66868;42.708;23.404;2024-01-07T00:23:13;41.53;;;20.33;;
77701;SDS011;66868;42.708;23.404;2024-01-07T00:25:38;41.05;;;21.30;;
77701;SDS011;66868;42.708;23.404;2024-01-07T00:28:04;49.25;;;20.73;;
77701;SDS011;66868;42.708;23.404;2024-01-07T00:30:29;41.35;;;21.73;;
77701;SDS011;66868;42.708;23.404;2024-01-07T00:32:55;42.90;;;23.98;;
77701;SDS011;66868;42.708;23.404;2024-01-07T00:35:20;53.35;;;25.55;;
77701;SDS011;66868;42.708;23.404;2024-01-07T00:37:46;54.10;;;24.30;;
77701;SDS011;66868;42.708;23.404;2024-01-07T00:40:11;59.13;;;25.80;;
77701;SDS011;66868;42.708;23.404;2024-01-07T00:42:37;41.37;;;23.23;;
77701;SDS011;66868;42.708;23.404;2024-01-07T00:45:02;45.30;;;24.63;;
77701;SDS011;66868;42.708;23.404;2024-01-07T00:47:28;41.50;;;20.77;;
77701;SDS011;66868;42.708;23.404;2024-01-07T00:49:54;35.40;;;20.33;;
77701;SDS011;66868;42.708;23.404;2024-01-07T00:52:19;38.65;;;21.80;;
77701;SDS011;66868;42.708;23.404;2024-01-07T00:54:46;54.72;;;25.00;;
77701;SDS011;66868;42.708;23.404;2024-01-07T00:57:11;38.57;;;20.60;;
77701;SDS011;66868;42.708;23.404;2024-01-07T00:59:39;38.50;;;20.23;;
77701;SDS011;66868;42.708;23.404;2024-01-07T01:02:05;33.20;;;18.77;;
77701;SDS011;66868;42.708;23.404;2024-01-07T01:04:31;37.53;;;18.47;;
77701;SDS011;66868;42.708;23.404;2024-01-07T01:06:56;36.33;;;17.57;;
77701;SDS011;66868;42.708;23.404;2024-01-07T01:09:21;31.40;;;17.80;;
77701;SDS011;66868;42.708;23.404;2024-01-07T01:11:47;31.30;;;17.10;;
77701;SDS011;66868;42.708;23.404;2024-01-07T01:14:14;30.40;;;17.00;;
77701;SDS011;66868;42.708;23.404;2024-01-07T01:16:40;32.67;;;17.05;;
77701;SDS011;66868;42.708;23.404;2024-01-07T01:19:05;31.27;;;17.13;;
77701;SDS011;66868;42.708;23.404;2024-01-07T01:21:31;28.58;;;16.95;;
77701;SDS011;66868;42.708;23.404;2024-01-07T01:23:56;28.88;;;17.35;;
77701;SDS011;66868;42.708;23.404;2024-01-07T01:26:23;33.05;;;17.77;;
77701;SDS011;66868;42.708;23.404;2024-01-07T01:28:48;49.00;;;21.55;;
77701;SDS011;66868;42.708;23.404;2024-01-07T01:31:14;55.72;;;31.23;;
77701;SDS011;66868;42.708;23.404;2024-01-07T01:33:39;58.47;;;28.10;;
77701;SDS011;66868;42.708;23.404;2024-01-07T01:36:05;47.17;;;26.83;;
77701;SDS011;66868;42.708;23.404;2024-01-07T01:38:31;50.70;;;26.70;;
77701;SDS011;66868;42.708;23.404;2024-01-07T01:40:57;46.67;;;24.50;;
77701;SDS011;66868;42.708;23.404;2024-01-07T01:43:23;45.33;;;26.48;;
77701;SDS011;66868;42.708;23.404;2024-01-07T01:45:49;47.42;;;24.98;;
77701;SDS011;66868;42.708;23.404;2024-01-07T01:48:15;44.15;;;24.45;;
77701;SDS011;66868;42.708;23.404;2024-01-07T01:50:40;46.80;;;24.38;;
77701;SDS011;66868;42.708;23.404;2024-01-07T01:53:06;40.05;;;22.00;;
77701;SDS011;66868;42.708;23.404;2024-01-07T01:55:33;44.22;;;25.55;;
77701;SDS011;66868;42.708;23.404;2024-01-07T01:57:59;48.20;;;25.05;;
77701;SDS011;66868;42.708;23.404;2024-01-07T02:00:29;46.17;;;25.63;;
77701;SDS011;66868;42.708;23.404;2024-01-07T02:02:57;49.28;;;26.33;;
77701;SDS011;66868;42.708;23.404;2024-01-07T02:05:23;42.72;;;24.20;;
77701;SDS011;66868;42.708;23.404;2024-01-07T02:07:48;45.95;;;24.05;;
77701;SDS011;66868;42.708;23.404;2024-01-07T02:10:14;42.33;;;22.75;;
77701;SDS011;66868;42.708;23.404;2024-01-07T02:12:40;40.40;;;22.38;;
77701;SDS011;66868;42.708;23.404;2024-01-07T02:15:06;40.53;;;22.63;;
77701;SDS011;66868;42.708;23.404;2024-01-07T02:17:31;44.65;;;24.15;;
77701;SDS011;66868;42.708;23.404;2024-01-07T02:19:57;36.53;;;20.27;;
77701;SDS011;66868;42.708;23.404;2024-01-07T02:22:22;35.78;;;20.10;;
77701;SDS011;66868;42.708;23.404;2024-01-07T02:24:48;41.75;;;22.10;;
77701;SDS011;66868;42.708;23.404;2024-01-07T02:27:13;38.85;;;23.08;;
77701;SDS011;66868;42.708;23.404;2024-01-07T02:29:39;33.90;;;20.73;;
77701;SDS011;66868;42.708;23.404;2024-01-07T02:32:04;43.00;;;22.73;;
77701;SDS011;66868;42.708;23.404;2024-01-07T02:34:30;36.28;;;22.35;;
77701;SDS011;66868;42.708;23.404;2024-01-07T02:36:56;41.38;;;21.80;;
77701;SDS011;66868;42.708;23.404;2024-01-07T02:39:21;40.38;;;22.40;;
77701;SDS011;66868;42.708;23.404;2024-01-07T02:41:47;43.08;;;25.05;;
77701;SDS011;66868;42.708;23.404;2024-01-07T02:44:12;42.95;;;24.10;;
77701;SDS011;66868;42.708;23.404;2024-01-07T02:46:38;46.05;;;24.13;;
77701;SDS011;66868;42.708;23.404;2024-01-07T02:49:03;39.83;;;24.45;;
77701;SDS011;66868;42.708;23.404;2024-01-07T02:51:29;46.97;;;25.13;;
77701;SDS011;66868;42.708;23.404;2024-01-07T02:53:54;43.20;;;23.77;;
77701;SDS011;66868;42.708;23.404;2024-01-07T02:56:20;42.65;;;23.83;;
77701;SDS011;66868;42.708;23.404;2024-01-07T02:58:45;49.05;;;24.65;;
77701;SDS011;66868;42.708;23.404;2024-01-07T03:01:11;39.67;;;23.17;;
77701;SDS011;66868;42.708;23.404;2024-01-07T03:03:37;45.10;;;22.88;;
77701;SDS011;66868;42.708;23.404;2024-01-07T03:06:02;44.25;;;23.42;;
77701;SDS011;66868;42.708;23.404;2024-01-07T03:08:28;44.67;;;22.02;;
77701;SDS011;66868;42.708;23.404;2024-01-07T03:10:54;40.60;;;22.65;;
77701;SDS011;66868;42.708;23.404;2024-01-07T03:13:19;40.28;;;22.73;;
77701;SDS011;66868;42.708;23.404;2024-01-07T03:15:45;35.30;;;20.90;;
77701;SDS011;66868;42.708;23.404;2024-01-07T03:18:10;51.97;;;24.83;;
77701;SDS011;66868;42.708;23.404;2024-01-07T03:20:36;43.47;;;26.02;;
77701;SDS011;66868;42.708;23.404;2024-01-07T03:23:01;52.95;;;26.58;;
77701;SDS011;66868;42.708;23.404;2024-01-07T03:25:27;55.30;;;26.15;;
77701;SDS011;66868;42.708;23.404;2024-01-07T03:27:53;43.30;;;22.75;;
77701;SDS011;66868;42.708;23.404;2024-01-07T03:30:18;43.95;;;22.13;;
77701;SDS011;66868;42.708;23.404;2024-01-07T03:32:44;40.22;;;22.02;;
77701;SDS011;66868;42.708;23.404;2024-01-07T03:35:09;41.83;;;22.88;;
77701;SDS011;66868;42.708;23.404;2024-01-07T03:37:35;43.95;;;23.38;;
77701;SDS011;66868;42.708;23.404;2024-01-07T03:40:01;44.25;;;22.45;;
77701;SDS011;66868;42.708;23.404;2024-01-07T03:42:27;41.88;;;22.88;;
77701;SDS011;66868;42.708;23.404;2024-01-07T03:44:52;44.55;;;21.50;;
77701;SDS011;66868;42.708;23.404;2024-01-07T03:47:18;34.10;;;19.42;;
77701;SDS011;66868;42.708;23.404;2024-01-07T03:49:43;32.85;;;19.23;;
77701;SDS011;66868;42.708;23.404;2024-01-07T03:52:09;30.00;;;18.20;;
77701;SDS011;66868;42.708;23.404;2024-01-07T03:54:34;36.85;;;20.77;;
77701;SDS011;66868;42.708;23.404;2024-01-07T03:57:00;41.40;;;20.88;;
77701;SDS011;66868;42.708;23.404;2024-01-07T03:59:25;34.97;;;20.85;;
77701;SDS011;66868;42.708;23.404;2024-01-07T04:01:55;29.65;;;19.30;;
77701;SDS011;66868;42.708;23.404;2024-01-07T04:04:22;22.30;;;16.08;;
77701;SDS011;66868;42.708;23.404;2024-01-07T04:06:48;26.10;;;15.23;;
77701;SDS011;66868;42.708;23.404;2024-01-07T04:09:13;32.33;;;16.02;;
77701;SDS011;66868;42.708;23.404;2024-01-07T04:11:40;26.92;;;16.95;;
77701;SDS011;66868;42.708;23.404;2024-01-07T04:14:06;24.50;;;15.98;;
77701;SDS011;66868;42.708;23.404;2024-01-07T04:16:31;27.65;;;15.60;;
77701;SDS011;66868;42.708;23.404;2024-01-07T04:18:57;27.70;;;16.10;;
77701;SDS011;66868;42.708;23.404;2024-01-07T04:21:22;30.55;;;18.33;;
77701;SDS011;66868;42.708;23.404;2024-01-07T04:23:48;22.45;;;14.10;;
77701;SDS011;66868;42.708;23.404;2024-01-07T04:26:13;20.05;;;13.82;;
77701;SDS011;66868;42.708;23.404;2024-01-07T04:28:40;23.10;;;13.82;;
77701;SDS011;66868;42.708;23.404;2024-01-07T04:31:07;24.17;;;15.02;;
77701;SDS011;66868;42.708;23.404;2024-01-07T04:33:32;29.40;;;16.88;;
77701;SDS011;66868;42.708;23.404;2024-01-07T04:35:58;28.08;;;17.05;;
77701;SDS011;66868;42.708;23.404;2024-01-07T04:38:25;21.02;;;15.65;;
77701;SDS011;66868;42.708;23.404;2024-01-07T04:40:51;27.67;;;16.23;;
77701;SDS011;66868;42.708;23.404;2024-01-07T04:43:17;26.33;;;15.07;;
77701;SDS011;66868;42.708;23.404;2024-01-07T04:45:43;25.52;;;14.57;;
77701;SDS011;66868;42.708;23.404;2024-01-07T04:48:09;22.75;;;15.23;;
77701;SDS011;66868;42.708;23.404;2024-01-07T04:50:34;27.02;;;14.13;;
77701;SDS011;66868;42.708;23.404;2024-01-07T04:53:00;26.23;;;15.23;;
77701;SDS011;66868;42.708;23.404;2024-01-07T04:55:25;21.83;;;15.15;;
77701;SDS011;66868;42.708;23.404;2024-01-07T04:57:52;23.77;;;13.77;;
77701;SDS011;66868;42.708;23.404;2024-01-07T05:00:17;23.85;;;14.20;;
77701;SDS011;66868;42.708;23.404;2024-01-07T05:02:43;24.55;;;13.05;;
77701;SDS011;66868;42.708;23.404;2024-01-07T05:05:08;27.15;;;15.07;;
77701;SDS011;66868;42.708;23.404;2024-01-07T05:07:34;24.92;;;13.02;;
77701;SDS011;66868;42.708;23.404;2024-01-07T05:09:59;19.10;;;12.82;;
77701;SDS011;66868;42.708;23.404;2024-01-07T05:12:25;22.92;;;13.13;;
77701;SDS011;66868;42.708;23.404;2024-01-07T05:14:51;19.25;;;12.52;;
77701;SDS011;66868;42.708;23.404;2024-01-07T05:17:17;18.85;;;11.65;;
77701;SDS011;66868;42.708;23.404;2024-01-07T05:19:42;16.33;;;11.95;;
77701;SDS011;66868;42.708;23.404;2024-01-07T05:22:08;18.58;;;12.52;;
77701;SDS011;66868;42.708;23.404;2024-01-07T05:24:36;22.25;;;12.18;;
77701;SDS011;66868;42.708;23.404;2024-01-07T05:27:03;22.85;;;13.73;;
77701;SDS011;66868;42.708;23.404;2024-01-07T05:29:28;29.52;;;15.43;;
77701;SDS011;66868;42.708;23.404;2024-01-07T05:31:54;24.15;;;13.48;;
77701;SDS011;66868;42.708;23.404;2024-01-07T05:34:19;15.48;;;11.23;;
77701;SDS011;66868;42.708;23.404;2024-01-07T05:36:45;28.05;;;16.05;;
77701;SDS011;66868;42.708;23.404;2024-01-07T05:39:10;22.67;;;15.23;;
77701;SDS011;66868;42.708;23.404;2024-01-07T05:41:36;24.60;;;14.38;;
77701;SDS011;66868;42.708;23.404;2024-01-07T05:44:05;23.50;;;13.82;;
77701;SDS011;66868;42.708;23.404;2024-01-07T05:46:31;28.67;;;15.93;;
77701;SDS011;66868;42.708;23.404;2024-01-07T05:48:58;19.08;;;14.27;;
77701;SDS011;66868;42.708;23.404;2024-01-07T05:51:23;25.23;;;14.52;;
77701;SDS011;66868;42.708;23.404;2024-01-07T05:53:49;24.38;;;14.65;;
77701;SDS011;66868;42.708;23.404;2024-01-07T05:56:14;27.92;;;14.75;;
77701;SDS011;66868;42.708;23.404;2024-01-07T05:58:40;23.63;;;14.38;;
77701;SDS011;66868;42.708;23.404;2024-01-07T06:01:06;19.33;;;13.93;;
77701;SDS011;66868;42.708;23.404;2024-01-07T06:03:33;24.33;;;14.23;;
77701;SDS011;66868;42.708;23.404;2024-01-07T06:05:59;20.60;;;13.77;;
77701;SDS011;66868;42.708;23.404;2024-01-07T06:08:28;20.98;;;13.40;;
77701;SDS011;66868;42.708;23.404;2024-01-07T06:10:53;21.38;;;13.75;;
77701;SDS011;66868;42.708;23.404;2024-01-07T06:13:19;20.88;;;13.02;;
77701;SDS011;66868;42.708;23.404;2024-01-07T06:16:03;19.77;;;12.38;;
77701;SDS011;66868;42.708;23.404;2024-01-07T06:18:29;22.40;;;13.70;;
77701;SDS011;66868;42.708;23.404;2024-01-07T06:20:55;28.23;;;16.30;;
77701;SDS011;66868;42.708;23.404;2024-01-07T06:23:20;19.42;;;14.30;;
77701;SDS011;66868;42.708;23.404;2024-01-07T06:25:46;23.10;;;13.55;;
77701;SDS011;66868;42.708;23.404;2024-01-07T06:28:11;21.63;;;14.75;;
77701;SDS011;66868;42.708;23.404;2024-01-07T06:30:36;24.35;;;14.32;;
77701;SDS011;66868;42.708;23.404;2024-01-07T06:33:02;20.63;;;14.38;;
77701;SDS011;66868;42.708;23.404;2024-01-07T06:35:28;30.35;;;19.95;;
77701;SDS011;66868;42.708;23.404;2024-01-07T06:37:53;50.25;;;29.17;;
77701;SDS011;66868;42.708;23.404;2024-01-07T06:40:19;52.20;;;25.58;;
77701;SDS011;66868;42.708;23.404;2024-01-07T06:42:45;47.22;;;24.60;;
77701;SDS011;66868;42.708;23.404;2024-01-07T06:45:10;45.72;;;24.90;;
77701;SDS011;66868;42.708;23.404;2024-01-07T06:47:36;32.55;;;19.63;;
77701;SDS011;66868;42.708;23.404;2024-01-07T06:50:02;30.42;;;19.50;;
77701;SDS011;66868;42.708;23.404;2024-01-07T06:52:28;37.20;;;20.25;;
77701;SDS011;66868;42.708;23.404;2024-01-07T06:54:53;24.33;;;15.70;;
77701;SDS011;66868;42.708;23.404;2024-01-07T06:57:19;20.10;;;14.13;;
77701;SDS011;66868;42.708;23.404;2024-01-07T06:59:44;24.50;;;13.77;;
77701;SDS011;66868;42.708;23.404;2024-01-07T07:02:10;20.58;;;14.50;;
77701;SDS011;66868;42.708;23.404;2024-01-07T07:04:36;26.63;;;15.10;;
77701;SDS011;66868;42.708;23.404;2024-01-07T07:07:01;24.70;;;14.95;;
77701;SDS011;66868;42.708;23.404;2024-01-07T07:09:27;18.23;;;14.35;;
77701;SDS011;66868;42.708;23.404;2024-01-07T07:11:52;23.67;;;14.77;;
77701;SDS011;66868;42.708;23.404;2024-01-07T07:14:18;21.10;;;14.63;;
77701;SDS011;66868;42.708;23.404;2024-01-07T07:16:43;22.23;;;16.10;;
77701;SDS011;66868;42.708;23.404;2024-01-07T07:19:09;33.20;;;20.00;;
77701;SDS011;66868;42.708;23.404;2024-01-07T07:21:39;31.23;;;18.35;;
77701;SDS011;66868;42.708;23.404;2024-01-07T07:24:05;29.73;;;18.52;;
77701;SDS011;66868;42.708;23.404;2024-01-07T07:26:31;31.77;;;18.08;;
77701;SDS011;66868;42.708;23.404;2024-01-07T07:28:57;29.63;;;17.58;;
77701;SDS011;66868;42.708;23.404;2024-01-07T07:31:22;32.55;;;18.17;;
77701;SDS011;66868;42.708;23.404;2024-01-07T07:33:48;30.15;;;17.60;;
77701;SDS011;66868;42.708;23.404;2024-01-07T07:36:14;30.98;;;18.00;;
77701;SDS011;66868;42.708;23.404;2024-01-07T07:38:40;41.75;;;22.05;;
77701;SDS011;66868;42.708;23.404;2024-01-07T07:41:06;85.55;;;34.65;;
77701;SDS011;66868;42.708;23.404;2024-01-07T07:43:32;41.72;;;22.50;;
77701;SDS011;66868;42.708;23.404;2024-01-07T07:45:58;32.58;;;18.90;;
77701;SDS011;66868;42.708;23.404;2024-01-07T07:48:25;31.58;;;18.88;;
77701;SDS011;66868;42.708;23.404;2024-01-07T07:50:51;29.02;;;15.98;;
77701;SDS011;66868;42.708;23.404;2024-01-07T07:53:16;25.88;;;14.52;;
77701;SDS011;66868;42.708;23.404;2024-01-07T07:55:42;18.70;;;13.23;;
77701;SDS011;66868;42.708;23.404;2024-01-07T07:58:07;22.23;;;14.77;;
77701;SDS011;66868;42.708;23.404;2024-01-07T08:00:33;24.23;;;14.77;;
77701;SDS011;66868;42.708;23.404;2024-01-07T08:02:58;30.90;;;14.27;;
77701;SDS011;66868;42.708;23.404;2024-01-07T08:05:24;22.25;;;13.57;;
77701;SDS011;66868;42.708;23.404;2024-01-07T08:07:49;23.08;;;13.30;;
77701;SDS011;66868;42.708;23.404;2024-01-07T08:10:15;25.98;;;15.20;;
77701;SDS011;66868;42.708;23.404;2024-01-07T08:12:41;27.52;;;15.50;;
77701;SDS011;66868;42.708;23.404;2024-01-07T08:15:06;27.92;;;18.00;;
77701;SDS011;66868;42.708;23.404;2024-01-07T08:17:32;32.53;;;20.02;;
77701;SDS011;66868;42.708;23.404;2024-01-07T08:19:58;36.13;;;21.85;;
77701;SDS011;66868;42.708;23.404;2024-01-07T08:22:24;34.63;;;20.40;;
77701;SDS011;66868;42.708;23.404;2024-01-07T08:24:50;27.92;;;17.08;;
77701;SDS011;66868;42.708;23.404;2024-01-07T08:27:15;20.08;;;15.23;;
77701;SDS011;66868;42.708;23.404;2024-01-07T08:29:44;22.77;;;15.35;;
77701;SDS011;66868;42.708;23.404;2024-01-07T08:32:09;30.10;;;15.85;;
77701;SDS011;66868;42.708;23.404;2024-01-07T08:34:35;21.35;;;15.18;;
77701;SDS011;66868;42.708;23.404;2024-01-07T08:37:01;28.42;;;16.42;;
77701;SDS011;66868;42.708;23.404;2024-01-07T08:39:26;25.98;;;15.68;;
77701;SDS011;66868;42.708;23.404;2024-01-07T08:41:53;26.98;;;17.70;;
77701;SDS011;66868;42.708;23.404;2024-01-07T08:44:19;25.65;;;17.42;;
77701;SDS011;66868;42.708;23.404;2024-01-07T08:46:44;41.10;;;24.95;;
77701;SDS011;66868;42.708;23.404;2024-01-07T08:49:10;75.65;;;43.05;;
77701;SDS011;66868;42.708;23.404;2024-01-07T08:51:36;33.83;;;21.85;;
77701;SDS011;66868;42.708;23.404;2024-01-07T08:54:02;34.17;;;19.00;;
77701;SDS011;66868;42.708;23.404;2024-01-07T08:56:28;30.15;;;19.27;;
77701;SDS011;66868;42.708;23.404;2024-01-07T08:58:54;33.22;;;21.85;;
77701;SDS011;66868;42.708;23.404;2024-01-07T09:01:19;37.80;;;21.52;;
77701;SDS011;66868;42.708;23.404;2024-01-07T09:03:45;32.63;;;19.90;;
77701;SDS011;66868;42.708;23.404;2024-01-07T09:06:10;26.67;;;18.48;;
77701;SDS011;66868;42.708;23.404;2024-01-07T09:08:36;20.38;;;12.70;;
77701;SDS011;66868;42.708;23.404;2024-01-07T09:11:04;12.98;;;8.20;;
77701;SDS011;66868;42.708;23.404;2024-01-07T09:13:31;8.80;;;6.80;;
77701;SDS011;66868;42.708;23.404;2024-01-07T09:15:57;9.75;;;7.93;;
77701;SDS011;66868;42.708;23.404;2024-01-07T09:18:22;12.95;;;7.70;;
77701;SDS011;66868;42.708;23.404;2024-01-07T09:20:48;9.60;;;8.23;;
77701;SDS011;66868;42.708;23.404;2024-01-07T09:23:14;9.20;;;8.23;;
77701;SDS011;66868;42.708;23.404;2024-01-07T09:25:40;13.35;;;9.25;;
77701;SDS011;66868;42.708;23.404;2024-01-07T09:28:07;11.23;;;8.85;;
77701;SDS011;66868;42.708;23.404;2024-01-07T09:30:32;9.00;;;8.02;;
77701;SDS011;66868;42.708;23.404;2024-01-07T09:32:58;9.75;;;7.25;;
77701;SDS011;66868;42.708;23.404;2024-01-07T09:35:23;8.50;;;6.05;;
77701;SDS011;66868;42.708;23.404;2024-01-07T09:37:48;5.53;;;5.03;;
77701;SDS011;66868;42.708;23.404;2024-01-07T09:40:17;8.57;;;5.80;;
77701;SDS011;66868;42.708;23.404;2024-01-07T09:42:44;5.28;;;4.78;;
77701;SDS011;66868;42.708;23.404;2024-01-07T09:45:11;5.05;;;4.65;;
77701;SDS011;66868;42.708;23.404;2024-01-07T09:47:38;9.05;;;6.05;;
77701;SDS011;66868;42.708;23.404;2024-01-07T09:50:06;15.52;;;8.77;;
77701;SDS011;66868;42.708;23.404;2024-01-07T09:52:34;16.65;;;8.77;;
77701;SDS011;66868;42.708;23.404;2024-01-07T09:55:02;8.45;;;7.32;;
77701;SDS011;66868;42.708;23.404;2024-01-07T09:57:28;13.73;;;8.35;;
77701;SDS011;66868;42.708;23.404;2024-01-07T09:59:54;15.98;;;8.35;;
77701;SDS011;66868;42.708;23.404;2024-01-07T10:02:20;8.02;;;6.15;;
77701;SDS011;66868;42.708;23.404;2024-01-07T10:04:48;11.60;;;8.55;;
77701;SDS011;66868;42.708;23.404;2024-01-07T10:07:14;13.07;;;7.63;;
77701;SDS011;66868;42.708;23.404;2024-01-07T10:09:40;8.10;;;6.25;;
77701;SDS011;66868;42.708;23.404;2024-01-07T10:12:08;11.10;;;6.93;;
77701;SDS011;66868;42.708;23.404;2024-01-07T10:14:34;11.98;;;7.68;;
77701;SDS011;66868;42.708;23.404;2024-01-07T10:17:00;10.60;;;6.97;;
77701;SDS011;66868;42.708;23.404;2024-01-07T10:19:25;7.40;;;6.70;;
77701;SDS011;66868;42.708;23.404;2024-01-07T10:22:01;7.68;;;6.97;;
77701;SDS011;66868;42.708;23.404;2024-01-07T10:24:37;10.60;;;8.48;;
77701;SDS011;66868;42.708;23.404;2024-01-07T10:27:04;11.15;;;7.72;;
77701;SDS011;66868;42.708;23.404;2024-01-07T10:29:31;12.18;;;6.72;;
77701;SDS011;66868;42.708;23.404;2024-01-07T10:31:58;8.95;;;6.72;;
77701;SDS011;66868;42.708;23.404;2024-01-07T10:34:27;8.65;;;6.63;;
77701;SDS011;66868;42.708;23.404;2024-01-07T10:36:56;12.00;;;7.28;;
77701;SDS011;66868;42.708;23.404;2024-01-07T10:39:24;11.70;;;9.60;;
77701;SDS011;66868;42.708;23.404;2024-01-07T10:41:50;10.65;;;9.55;;
77701;SDS011;66868;42.708;23.404;2024-01-07T10:44:18;12.45;;;10.18;;
77701;SDS011;66868;42.708;23.404;2024-01-07T10:46:45;13.30;;;10.13;;
77701;SDS011;66868;42.708;23.404;2024-01-07T10:49:15;15.55;;;9.70;;
77701;SDS011;66868;42.708;23.404;2024-01-07T10:52:05;14.73;;;10.93;;
77701;SDS011;66868;42.708;23.404;2024-01-07T10:54:32;12.77;;;10.25;;
77701;SDS011;66868;42.708;23.404;2024-01-07T10:57:04;14.32;;;10.40;;
77701;SDS011;66868;42.708;23.404;2024-01-07T10:59:37;16.98;;;13.38;;
77701;SDS011;66868;42.708;23.404;2024-01-07T11:02:05;20.40;;;15.15;;
77701;SDS011;66868;42.708;23.404;2024-01-07T11:04:45;21.90;;;16.00;;
77701;SDS011;66868;42.708;23.404;2024-01-07T11:10:21;17.23;;;13.32;;
77701;SDS011;66868;42.708;23.404;2024-01-07T11:12:55;13.45;;;11.25;;
77701;SDS011;66868;42.708;23.404;2024-01-07T11:18:19;17.60;;;10.38;;
77701;SDS011;66868;42.708;23.404;2024-01-07T11:20:45;14.52;;;10.95;;
77701;SDS011;66868;42.708;23.404;2024-01-07T11:23:45;13.35;;;10.57;;
77701;SDS011;66868;42.708;23.404;2024-01-07T11:26:11;15.90;;;9.68;;
77701;SDS011;66868;42.708;23.404;2024-01-07T11:31:17;20.48;;;8.20;;
77701;SDS011;66868;42.708;23.404;2024-01-07T11:33:45;8.55;;;7.28;;
77701;SDS011;66868;42.708;23.404;2024-01-07T11:36:14;8.80;;;6.93;;
77701;SDS011;66868;42.708;23.404;2024-01-07T11:38:44;10.25;;;7.10;;
77701;SDS011;66868;42.708;23.404;2024-01-07T11:41:12;14.50;;;8.27;;
77701;SDS011;66868;42.708;23.404;2024-01-07T11:43:51;9.05;;;7.20;;
77701;SDS011;66868;42.708;23.404;2024-01-07T11:46:18;7.72;;;6.95;;
77701;SDS011;66868;42.708;23.404;2024-01-07T11:48:45;12.13;;;5.78;;
77701;SDS011;66868;42.708;23.404;2024-01-07T11:51:11;12.02;;;6.55;;
77701;SDS011;66868;42.708;23.404;2024-01-07T11:53:37;13.52;;;5.18;;
77701;SDS011;66868;42.708;23.404;2024-01-07T11:56:02;8.98;;;5.45;;
77701;SDS011;66868;42.708;23.404;2024-01-07T11:58:30;11.80;;;7.47;;
77701;SDS011;66868;42.708;23.404;2024-01-07T12:00:55;9.73;;;6.35;;
77701;SDS011;66868;42.708;23.404;2024-01-07T12:03:20;6.38;;;4.88;;
77701;SDS011;66868;42.708;23.404;2024-01-07T12:05:48;4.85;;;3.90;;
77701;SDS011;66868;42.708;23.404;2024-01-07T12:08:14;10.50;;;5.55;;
77701;SDS011;66868;42.708;23.404;2024-01-07T12:10:40;10.73;;;7.30;;
77701;SDS011;66868;42.708;23.404;2024-01-07T12:13:06;16.05;;;8.52;;
77701;SDS011;66868;42.708;23.404;2024-01-07T12:15:33;15.80;;;8.82;;
77701;SDS011;66868;42.708;23.404;2024-01-07T12:17:59;10.35;;;7.57;;
77701;SDS011;66868;42.708;23.404;2024-01-07T12:20:26;11.90;;;8.68;;
77701;SDS011;66868;42.708;23.404;2024-01-07T12:22:55;14.50;;;8.30;;
77701;SDS011;66868;42.708;23.404;2024-01-07T12:25:22;12.20;;;8.55;;
77701;SDS011;66868;42.708;23.404;2024-01-07T12:27:51;8.20;;;6.90;;
77701;SDS011;66868;42.708;23.404;2024-01-07T12:30:20;6.63;;;5.57;;
77701;SDS011;66868;42.708;23.404;2024-01-07T12:32:46;4.97;;;4.63;;
77701;SDS011;66868;42.708;23.404;2024-01-07T12:35:12;11.90;;;6.78;;
77701;SDS011;66868;42.708;23.404;2024-01-07T12:37:37;10.98;;;6.90;;
77701;SDS011;66868;42.708;23.404;2024-01-07T12:40:03;13.57;;;6.40;;
77701;SDS011;66868;42.708;23.404;2024-01-07T12:42:29;13.13;;;7.35;;
77701;SDS011;66868;42.708;23.404;2024-01-07T12:44:55;9.77;;;6.90;;
77701;SDS011;66868;42.708;23.404;2024-01-07T12:47:20;7.55;;;5.00;;
77701;SDS011;66868;42.708;23.404;2024-01-07T12:49:46;6.80;;;4.72;;
77701;SDS011;66868;42.708;23.404;2024-01-07T12:52:11;11.20;;;5.43;;
77701;SDS011;66868;42.708;23.404;2024-01-07T12:54:38;7.68;;;5.90;;
77701;SDS011;66868;42.708;23.404;2024-01-07T12:57:03;8.85;;;5.57;;
77701;SDS011;66868;42.708;23.404;2024-01-07T12:59:29;11.27;;;5.25;;
77701;SDS011;66868;42.708;23.404;2024-01-07T13:01:55;8.70;;;5.00;;
77701;SDS011;66868;42.708;23.404;2024-01-07T13:04:21;7.53;;;4.80;;
77701;SDS011;66868;42.708;23.404;2024-01-07T13:06:46;5.07;;;4.57;;
77701;SDS011;66868;42.708;23.404;2024-01-07T13:09:12;4.72;;;3.65;;
77701;SDS011;66868;42.708;23.404;2024-01-07T13:11:37;10.82;;;5.32;;
77701;SDS011;66868;42.708;23.404;2024-01-07T13:14:03;8.20;;;5.10;;
77701;SDS011;66868;42.708;23.404;2024-01-07T13:16:28;3.63;;;2.90;;
77701;SDS011;66868;42.708;23.404;2024-01-07T13:18:54;6.60;;;4.10;;
77701;SDS011;66868;42.708;23.404;2024-01-07T13:21:20;8.02;;;4.70;;
77701;SDS011;66868;42.708;23.404;2024-01-07T13:23:46;10.90;;;7.05;;
77701;SDS011;66868;42.708;23.404;2024-01-07T13:26:13;12.30;;;9.43;;
77701;SDS011;66868;42.708;23.404;2024-01-07T13:28:39;17.08;;;9.98;;
77701;SDS011;66868;42.708;23.404;2024-01-07T13:31:04;11.07;;;8.82;;
77701;SDS011;66868;42.708;23.404;2024-01-07T13:33:31;15.75;;;7.82;;
77701;SDS011;66868;42.708;23.404;2024-01-07T13:35:57;12.23;;;6.95;;
77701;SDS011;66868;42.708;23.404;2024-01-07T13:38:23;9.68;;;6.90;;
77701;SDS011;66868;42.708;23.404;2024-01-07T13:40:48;13.88;;;6.75;;
77701;SDS011;66868;42.708;23.404;2024-01-07T13:43:14;11.07;;;5.85;;
77701;SDS011;66868;42.708;23.404;2024-01-07T13:45:40;10.85;;;5.90;;
77701;SDS011;66868;42.708;23.404;2024-01-07T13:48:06;13.65;;;5.80;;
77701;SDS011;66868;42.708;23.404;2024-01-07T13:50:32;8.43;;;5.30;;
77701;SDS011;66868;42.708;23.404;2024-01-07T13:52:58;14.77;;;8.10;;
77701;SDS011;66868;42.708;23.404;2024-01-07T13:55:23;11.73;;;7.07;;
77701;SDS011;66868;42.708;23.404;2024-01-07T13:57:49;18.52;;;7.70;;
77701;SDS011;66868;42.708;23.404;2024-01-07T14:00:14;18.65;;;8.52;;
77701;SDS011;66868;42.708;23.404;2024-01-07T14:02:44;16.15;;;8.60;;
77701;SDS011;66868;42.708;23.404;2024-01-07T14:05:12;21.17;;;12.73;;
77701;SDS011;66868;42.708;23.404;2024-01-07T14:07:38;38.97;;;20.85;;
77701;SDS011;66868;42.708;23.404;2024-01-07T14:10:04;37.97;;;22.45;;
77701;SDS011;66868;42.708;23.404;2024-01-07T14:12:31;55.45;;;27.75;;
77701;SDS011;66868;42.708;23.404;2024-01-07T14:14:57;45.55;;;23.33;;
77701;SDS011;66868;42.708;23.404;2024-01-07T14:17:26;52.22;;;25.60;;